sensor_id;sensor_type;location;lat;lon;timestamp;pressure;altitude;pressure_sealevel;temperature;humidity
57763;BME280;43592;42.524;12.052;2022-11-13T00:00:31;97420.53;;;8.86;98.83
57763;BME280;43592;42.524;12.052;2022-11-13T00:02:57;97417.09;;;8.85;98.59
57763;BME280;43592;42.524;12.052;2022-11-13T00:05:22;97416.31;;;8.85;98.79
57763;BME280;43592;42.524;12.052;2022-11-13T00:07:48;97424.97;;;8.90;99.22
57763;BME280;43592;42.524;12.052;2022-11-13T00:10:13;97410.69;;;8.95;99.00
57763;BME280;43592;42.524;12.052;2022-11-13T00:12:39;97415.88;;;9.00;98.88
57763;BME280;43592;42.524;12.052;2022-11-13T00:15:05;97416.34;;;9.02;98.79
57763;BME280;43592;42.524;12.052;2022-11-13T00:17:30;97418.41;;;9.05;99.02
57763;BME280;43592;42.524;12.052;2022-11-13T00:19:56;97418.28;;;9.10;98.21
57763;BME280;43592;42.524;12.052;2022-11-13T00:22:21;97413.09;;;9.14;98.45
57763;BME280;43592;42.524;12.052;2022-11-13T00:24:47;97412.47;;;9.17;98.17
57763;BME280;43592;42.524;12.052;2022-11-13T00:27:12;97412.47;;;9.17;97.94
57763;BME280;43592;42.524;12.052;2022-11-13T00:29:38;97409.78;;;9.17;98.28
57763;BME280;43592;42.524;12.052;2022-11-13T00:32:04;97405.56;;;9.16;98.84
57763;BME280;43592;42.524;12.052;2022-11-13T00:34:29;97411.69;;;9.16;98.51
57763;BME280;43592;42.524;12.052;2022-11-13T00:36:55;97401.50;;;9.18;98.57
57763;BME280;43592;42.524;12.052;2022-11-13T00:39:20;97391.28;;;9.20;98.67
57763;BME280;43592;42.524;12.052;2022-11-13T00:41:46;97387.03;;;9.19;98.16
57763;BME280;43592;42.524;12.052;2022-11-13T00:44:11;97385.94;;;9.20;98.78
57763;BME280;43592;42.524;12.052;2022-11-13T00:46:37;97393.19;;;9.20;98.89
57763;BME280;43592;42.524;12.052;2022-11-13T00:49:02;97401.97;;;9.20;98.93
57763;BME280;43592;42.524;12.052;2022-11-13T00:51:28;97390.97;;;9.22;98.25
57763;BME280;43592;42.524;12.052;2022-11-13T00:53:53;97385.47;;;9.27;98.04
57763;BME280;43592;42.524;12.052;2022-11-13T00:56:19;97385.34;;;9.32;98.54
57763;BME280;43592;42.524;12.052;2022-11-13T00:58:44;97386.59;;;9.35;97.47
57763;BME280;43592;42.524;12.052;2022-11-13T01:01:11;97377.97;;;9.38;98.06
57763;BME280;43592;42.524;12.052;2022-11-13T01:03:37;97384.09;;;9.38;98.27
57763;BME280;43592;42.524;12.052;2022-11-13T01:06:10;97387.53;;;9.39;98.24
57763;BME280;43592;42.524;12.052;2022-11-13T01:08:35;97379.22;;;9.40;97.65
57763;BME280;43592;42.524;12.052;2022-11-13T01:11:06;97375.78;;;9.40;97.51
57763;BME280;43592;42.524;12.052;2022-11-13T01:13:32;97374.19;;;9.39;97.48
57763;BME280;43592;42.524;12.052;2022-11-13T01:15:57;97376.84;;;9.39;97.59
57763;BME280;43592;42.524;12.052;2022-11-13T01:18:23;97370.09;;;9.41;97.24
57763;BME280;43592;42.524;12.052;2022-11-13T01:20:48;97374.97;;;9.39;97.19
57763;BME280;43592;42.524;12.052;2022-11-13T01:23:14;97374.19;;;9.39;97.74
57763;BME280;43592;42.524;12.052;2022-11-13T01:25:39;97372.28;;;9.39;97.24
57763;BME280;43592;42.524;12.052;2022-11-13T01:28:05;97377.63;;;9.39;97.97
57763;BME280;43592;42.524;12.052;2022-11-13T01:30:30;97370.56;;;9.35;98.18
57763;BME280;43592;42.524;12.052;2022-11-13T01:32:55;97364.25;;;9.31;98.14
57763;BME280;43592;42.524;12.052;2022-11-13T01:35:21;97359.88;;;9.26;98.23
57763;BME280;43592;42.524;12.052;2022-11-13T01:37:47;97361.28;;;9.24;98.79
57763;BME280;43592;42.524;12.052;2022-11-13T01:40:12;97350.91;;;9.22;99.45
57763;BME280;43592;42.524;12.052;2022-11-13T01:42:38;97341.00;;;9.22;99.56
57763;BME280;43592;42.524;12.052;2022-11-13T01:45:48;97345.56;;;9.22;99.53
57763;BME280;43592;42.524;12.052;2022-11-13T01:47:49;97332.84;;;9.19;99.34
57763;BME280;43592;42.524;12.052;2022-11-13T01:50:15;97335.84;;;9.17;100.00
57763;BME280;43592;42.524;12.052;2022-11-13T01:52:40;97333.47;;;9.16;99.68
57763;BME280;43592;42.524;12.052;2022-11-13T01:55:07;97344.47;;;9.14;99.70
57763;BME280;43592;42.524;12.052;2022-11-13T01:57:35;97340.22;;;9.13;100.00
57763;BME280;43592;42.524;12.052;2022-11-13T02:00:04;97339.44;;;9.13;100.00
57763;BME280;43592;42.524;12.052;2022-11-13T02:02:31;97338.03;;;9.15;100.00
57763;BME280;43592;42.524;12.052;2022-11-13T02:04:57;97334.25;;;9.16;100.00
57763;BME280;43592;42.524;12.052;2022-11-13T02:07:22;97337.53;;;9.13;100.00
57763;BME280;43592;42.524;12.052;2022-11-13T02:09:49;97329.22;;;9.06;100.00
57763;BME280;43592;42.524;12.052;2022-11-13T02:12:18;97327.00;;;8.99;100.00
57763;BME280;43592;42.524;12.052;2022-11-13T02:14:48;97335.78;;;8.91;100.00
57763;BME280;43592;42.524;12.052;2022-11-13T02:17:19;97326.03;;;8.87;100.00
57763;BME280;43592;42.524;12.052;2022-11-13T02:19:48;97325.88;;;8.83;100.00
57763;BME280;43592;42.524;12.052;2022-11-13T02:22:17;97318.94;;;8.82;100.00
57763;BME280;43592;42.524;12.052;2022-11-13T02:24:44;97322.41;;;8.83;100.00
57763;BME280;43592;42.524;12.052;2022-11-13T02:27:23;97322.41;;;8.83;100.00
57763;BME280;43592;42.524;12.052;2022-11-13T02:29:50;97322.09;;;8.84;100.00
57763;BME280;43592;42.524;12.052;2022-11-13T02:32:15;97324.16;;;8.87;100.00
57763;BME280;43592;42.524;12.052;2022-11-13T02:34:41;97329.66;;;8.91;100.00
57763;BME280;43592;42.524;12.052;2022-11-13T02:37:06;97323.69;;;8.94;100.00
57763;BME280;43592;42.524;12.052;2022-11-13T02:39:32;97326.22;;;8.99;100.00
57763;BME280;43592;42.524;12.052;2022-11-13T02:41:57;97322.13;;;9.02;100.00
57763;BME280;43592;42.524;12.052;2022-11-13T02:44:23;97319.94;;;9.04;100.00
57763;BME280;43592;42.524;12.052;2022-11-13T02:46:48;97312.88;;;9.08;100.00
57763;BME280;43592;42.524;12.052;2022-11-13T02:49:14;97312.25;;;9.11;100.00
57763;BME280;43592;42.524;12.052;2022-11-13T02:51:39;97314.78;;;9.16;100.00
57763;BME280;43592;42.524;12.052;2022-11-13T02:54:05;97306.47;;;9.17;100.00
57763;BME280;43592;42.524;12.052;2022-11-13T02:56:30;97312.25;;;9.19;100.00
57763;BME280;43592;42.524;12.052;2022-11-13T02:58:56;97310.84;;;9.22;100.00
57763;BME280;43592;42.524;12.052;2022-11-13T03:01:21;97307.53;;;9.25;100.00
57763;BME280;43592;42.524;12.052;2022-11-13T03:03:47;97312.09;;;9.25;100.00
57763;BME280;43592;42.524;12.052;2022-11-13T03:06:13;97305.97;;;9.24;100.00
57763;BME280;43592;42.524;12.052;2022-11-13T03:08:38;97300.63;;;9.24;100.00
57763;BME280;43592;42.524;12.052;2022-11-13T03:11:07;97305.69;;;9.26;99.86
57763;BME280;43592;42.524;12.052;2022-11-13T03:13:33;97304.88;;;9.25;99.48
57763;BME280;43592;42.524;12.052;2022-11-13T03:16:12;97311.03;;;9.26;100.00
57763;BME280;43592;42.524;12.052;2022-11-13T03:18:38;97308.34;;;9.26;100.00
57763;BME280;43592;42.524;12.052;2022-11-13T03:21:05;97315.56;;;9.25;100.00
57763;BME280;43592;42.524;12.052;2022-11-13T03:23:30;97309.91;;;9.27;99.16
57763;BME280;43592;42.524;12.052;2022-11-13T03:25:56;97308.03;;;9.27;99.45
57763;BME280;43592;42.524;12.052;2022-11-13T03:28:26;97311.03;;;9.26;98.92
57763;BME280;43592;42.524;12.052;2022-11-13T03:30:51;97311.81;;;9.26;98.60
57763;BME280;43592;42.524;12.052;2022-11-13T03:33:17;97312.09;;;9.25;98.58
57763;BME280;43592;42.524;12.052;2022-11-13T03:35:42;97308.66;;;9.24;98.79
57763;BME280;43592;42.524;12.052;2022-11-13T03:38:08;97311.31;;;9.24;98.06
57763;BME280;43592;42.524;12.052;2022-11-13T03:40:33;97311.81;;;9.26;97.41
57763;BME280;43592;42.524;12.052;2022-11-13T03:42:59;97306.13;;;9.28;97.29
57763;BME280;43592;42.524;12.052;2022-11-13T03:45:24;97298.59;;;9.30;97.71
57763;BME280;43592;42.524;12.052;2022-11-13T03:47:50;97309.28;;;9.30;97.14
57763;BME280;43592;42.524;12.052;2022-11-13T03:50:15;97305.84;;;9.29;97.34
57763;BME280;43592;42.524;12.052;2022-11-13T03:52:41;97302.38;;;9.29;97.18
57763;BME280;43592;42.524;12.052;2022-11-13T03:55:06;97302.38;;;9.29;96.61
57763;BME280;43592;42.524;12.052;2022-11-13T03:57:32;97309.28;;;9.30;96.75
57763;BME280;43592;42.524;12.052;2022-11-13T03:59:57;97305.50;;;9.31;96.05
57763;BME280;43592;42.524;12.052;2022-11-13T04:02:23;97301.75;;;9.32;95.69
57763;BME280;43592;42.524;12.052;2022-11-13T04:04:48;97300.34;;;9.34;95.41
57763;BME280;43592;42.524;12.052;2022-11-13T04:07:14;97290.88;;;9.37;95.15
57763;BME280;43592;42.524;12.052;2022-11-13T04:09:40;97286.50;;;9.41;94.91
57763;BME280;43592;42.524;12.052;2022-11-13T04:12:05;97279.41;;;9.45;94.97
57763;BME280;43592;42.524;12.052;2022-11-13T04:14:31;97279.59;;;9.49;94.16
57763;BME280;43592;42.524;12.052;2022-11-13T04:16:56;97272.84;;;9.51;93.93
57763;BME280;43592;42.524;12.052;2022-11-13T04:19:21;97275.66;;;9.55;93.52
57763;BME280;43592;42.524;12.052;2022-11-13T04:21:47;97281.13;;;9.58;93.30
57763;BME280;43592;42.524;12.052;2022-11-13T04:24:12;97275.78;;;9.58;92.51
57763;BME280;43592;42.524;12.052;2022-11-13T04:26:38;97270.16;;;9.60;93.05
57763;BME280;43592;42.524;12.052;2022-11-13T04:29:03;97267.13;;;9.61;93.56
57763;BME280;43592;42.524;12.052;2022-11-13T04:31:29;97267.13;;;9.61;93.61
57763;BME280;43592;42.524;12.052;2022-11-13T04:33:54;97260.72;;;9.62;93.48
57763;BME280;43592;42.524;12.052;2022-11-13T04:36:20;97260.38;;;9.64;92.79
57763;BME280;43592;42.524;12.052;2022-11-13T04:38:45;97262.41;;;9.67;92.47
57763;BME280;43592;42.524;12.052;2022-11-13T04:41:11;97264.31;;;9.66;92.06
57763;BME280;43592;42.524;12.052;2022-11-13T04:43:55;97265.22;;;9.71;91.90
57763;BME280;43592;42.524;12.052;2022-11-13T04:46:21;97267.25;;;9.74;91.65
57763;BME280;43592;42.524;12.052;2022-11-13T04:48:46;97255.50;;;9.75;91.92
57763;BME280;43592;42.524;12.052;2022-11-13T04:51:12;97260.50;;;9.76;91.99
57763;BME280;43592;42.524;12.052;2022-11-13T04:53:37;97255.97;;;9.77;92.07
57763;BME280;43592;42.524;12.052;2022-11-13T04:56:03;97251.41;;;9.77;91.97
57763;BME280;43592;42.524;12.052;2022-11-13T04:58:28;97251.84;;;9.79;91.05
57763;BME280;43592;42.524;12.052;2022-11-13T05:00:54;97247.31;;;9.80;90.67
57763;BME280;43592;42.524;12.052;2022-11-13T05:03:20;97246.66;;;9.83;90.67
57763;BME280;43592;42.524;12.052;2022-11-13T05:05:45;97250.91;;;9.84;90.34
57763;BME280;43592;42.524;12.052;2022-11-13T05:08:10;97255.13;;;9.85;89.97
57763;BME280;43592;42.524;12.052;2022-11-13T05:10:37;97252.94;;;9.87;89.94
57763;BME280;43592;42.524;12.052;2022-11-13T05:13:02;97251.38;;;9.86;90.11
57763;BME280;43592;42.524;12.052;2022-11-13T05:15:28;97256.09;;;9.89;89.28
57763;BME280;43592;42.524;12.052;2022-11-13T05:17:53;97246.94;;;9.90;88.82
57763;BME280;43592;42.524;12.052;2022-11-13T05:20:19;97248.53;;;9.91;88.48
57763;BME280;43592;42.524;12.052;2022-11-13T05:22:44;97243.19;;;9.91;88.39
57763;BME280;43592;42.524;12.052;2022-11-13T05:25:10;97240.50;;;9.91;88.70
57763;BME280;43592;42.524;12.052;2022-11-13T05:27:35;97236.25;;;9.90;88.70
57763;BME280;43592;42.524;12.052;2022-11-13T05:30:01;97227.44;;;9.89;88.02
57763;BME280;43592;42.524;12.052;2022-11-13T05:32:26;97225.56;;;9.90;87.97
57763;BME280;43592;42.524;12.052;2022-11-13T05:34:52;97229.00;;;9.90;87.59
57763;BME280;43592;42.524;12.052;2022-11-13T05:37:17;97241.59;;;9.90;88.45
57763;BME280;43592;42.524;12.052;2022-11-13T05:39:42;97234.69;;;9.89;87.60
57763;BME280;43592;42.524;12.052;2022-11-13T05:42:08;97234.22;;;9.87;87.93
57763;BME280;43592;42.524;12.052;2022-11-13T05:44:33;97228.72;;;9.83;88.22
57763;BME280;43592;42.524;12.052;2022-11-13T05:46:59;97232.06;;;9.80;87.88
57763;BME280;43592;42.524;12.052;2022-11-13T05:49:24;97237.56;;;9.75;88.40
57763;BME280;43592;42.524;12.052;2022-11-13T05:51:50;97236.94;;;9.70;88.51
57763;BME280;43592;42.524;12.052;2022-11-13T05:54:18;97241.66;;;9.64;88.74
57763;BME280;43592;42.524;12.052;2022-11-13T05:56:43;97238.84;;;9.60;88.97
57763;BME280;43592;42.524;12.052;2022-11-13T05:59:09;97243.09;;;9.53;89.65
57763;BME280;43592;42.524;12.052;2022-11-13T06:01:35;97242.00;;;9.45;90.05
57763;BME280;43592;42.524;12.052;2022-11-13T06:04:01;97241.09;;;9.41;90.74
57763;BME280;43592;42.524;12.052;2022-11-13T06:06:27;97242.34;;;9.35;90.48
57763;BME280;43592;42.524;12.052;2022-11-13T06:08:53;97244.41;;;9.29;91.12
57763;BME280;43592;42.524;12.052;2022-11-13T06:11:20;97255.25;;;9.24;91.85
57763;BME280;43592;42.524;12.052;2022-11-13T06:13:46;97256.81;;;9.16;91.64
57763;BME280;43592;42.524;12.052;2022-11-13T06:16:14;97246.59;;;9.10;92.66
57763;BME280;43592;42.524;12.052;2022-11-13T06:18:40;97248.00;;;9.07;93.13
57763;BME280;43592;42.524;12.052;2022-11-13T06:21:08;97247.22;;;9.07;92.90
57763;BME280;43592;42.524;12.052;2022-11-13T06:23:35;97253.34;;;9.07;93.59
57763;BME280;43592;42.524;12.052;2022-11-13T06:26:01;97252.88;;;9.05;93.15
57763;BME280;43592;42.524;12.052;2022-11-13T06:28:27;97249.41;;;9.05;93.77
57763;BME280;43592;42.524;12.052;2022-11-13T06:30:53;97258.53;;;9.04;94.21
57763;BME280;43592;42.524;12.052;2022-11-13T06:33:18;97257.75;;;9.03;93.79
57763;BME280;43592;42.524;12.052;2022-11-13T06:35:44;97260.44;;;9.03;93.81
57763;BME280;43592;42.524;12.052;2022-11-13T06:38:09;97266.56;;;9.04;94.25
57763;BME280;43592;42.524;12.052;2022-11-13T06:40:36;97255.88;;;9.04;94.25
57763;BME280;43592;42.524;12.052;2022-11-13T06:43:02;97255.53;;;9.05;94.55
57763;BME280;43592;42.524;12.052;2022-11-13T06:45:28;97261.84;;;9.09;94.34
57763;BME280;43592;42.524;12.052;2022-11-13T06:47:53;97257.13;;;9.15;93.96
57763;BME280;43592;42.524;12.052;2022-11-13T06:50:19;97256.97;;;9.20;94.10
57763;BME280;43592;42.524;12.052;2022-11-13T06:52:45;97261.22;;;9.30;92.89
57763;BME280;43592;42.524;12.052;2022-11-13T06:55:10;97252.88;;;9.40;92.39
57763;BME280;43592;42.524;12.052;2022-11-13T06:57:36;97245.28;;;9.59;91.18
57763;BME280;43592;42.524;12.052;2022-11-13T07:00:01;97242.59;;;9.77;90.99
57763;BME280;43592;42.524;12.052;2022-11-13T07:02:27;97246.94;;;9.90;89.79
57763;BME280;43592;42.524;12.052;2022-11-13T07:04:52;97256.16;;;10.10;88.50
57763;BME280;43592;42.524;12.052;2022-11-13T07:07:18;97248.25;;;10.31;86.46
57763;BME280;43592;42.524;12.052;2022-11-13T07:09:43;97236.34;;;10.49;84.18
57763;BME280;43592;42.524;12.052;2022-11-13T07:12:09;97240.22;;;10.61;82.33
57763;BME280;43592;42.524;12.052;2022-11-13T07:14:34;97246.75;;;10.72;83.44
57763;BME280;43592;42.524;12.052;2022-11-13T07:17:00;97244.44;;;10.91;82.01
57763;BME280;43592;42.524;12.052;2022-11-13T07:19:25;97246.78;;;11.14;80.03
57763;BME280;43592;42.524;12.052;2022-11-13T07:21:51;97251.91;;;11.40;79.02
57763;BME280;43592;42.524;12.052;2022-11-13T07:24:16;97248.31;;;11.69;79.52
57763;BME280;43592;42.524;12.052;2022-11-13T07:26:42;97250.00;;;11.95;77.12
57763;BME280;43592;42.524;12.052;2022-11-13T07:29:07;97241.06;;;12.15;75.98
57763;BME280;43592;42.524;12.052;2022-11-13T07:31:33;97243.09;;;12.30;74.57
57763;BME280;43592;42.524;12.052;2022-11-13T07:33:58;97241.31;;;12.47;75.03
57763;BME280;43592;42.524;12.052;2022-11-13T07:36:24;97245.88;;;12.58;74.92
57763;BME280;43592;42.524;12.052;2022-11-13T07:38:50;97240.16;;;12.72;74.03
57763;BME280;43592;42.524;12.052;2022-11-13T07:41:16;97241.81;;;12.89;73.83
57763;BME280;43592;42.524;12.052;2022-11-13T07:43:41;97242.13;;;13.00;73.52
57763;BME280;43592;42.524;12.052;2022-11-13T07:46:07;97249.97;;;13.05;71.52
57763;BME280;43592;42.524;12.052;2022-11-13T07:48:32;97253.53;;;13.09;73.22
57763;BME280;43592;42.524;12.052;2022-11-13T07:50:58;97248.03;;;13.06;71.82
57763;BME280;43592;42.524;12.052;2022-11-13T07:53:24;97249.47;;;13.15;72.90
57763;BME280;43592;42.524;12.052;2022-11-13T07:55:49;97253.91;;;13.36;74.41
57763;BME280;43592;42.524;12.052;2022-11-13T07:58:15;97251.34;;;13.55;74.79
57763;BME280;43592;42.524;12.052;2022-11-13T08:00:40;97251.41;;;13.71;72.21
57763;BME280;43592;42.524;12.052;2022-11-13T08:03:07;97255.84;;;13.79;74.37
57763;BME280;43592;42.524;12.052;2022-11-13T08:05:33;97247.94;;;13.86;71.65
57763;BME280;43592;42.524;12.052;2022-11-13T08:07:59;97259.25;;;13.92;71.74
57763;BME280;43592;42.524;12.052;2022-11-13T08:10:24;97255.34;;;14.05;73.70
57763;BME280;43592;42.524;12.052;2022-11-13T08:12:56;97252.69;;;14.21;69.85
57763;BME280;43592;42.524;12.052;2022-11-13T08:15:22;97253.34;;;14.34;72.78
57763;BME280;43592;42.524;12.052;2022-11-13T08:17:56;97258.31;;;14.32;69.56
57763;BME280;43592;42.524;12.052;2022-11-13T08:20:22;97256.50;;;14.36;72.10
57763;BME280;43592;42.524;12.052;2022-11-13T08:22:48;97252.66;;;14.37;71.63
57763;BME280;43592;42.524;12.052;2022-11-13T08:25:14;97250.47;;;14.43;74.16
57763;BME280;43592;42.524;12.052;2022-11-13T08:27:40;97251.38;;;14.31;67.83
57763;BME280;43592;42.524;12.052;2022-11-13T08:30:05;97254.03;;;14.15;67.10
57763;BME280;43592;42.524;12.052;2022-11-13T08:32:31;97256.81;;;14.03;66.67
57763;BME280;43592;42.524;12.052;2022-11-13T08:34:57;97261.88;;;14.04;67.10
57763;BME280;43592;42.524;12.052;2022-11-13T08:37:22;97259.59;;;14.06;69.29
57763;BME280;43592;42.524;12.052;2022-11-13T08:39:48;97269.25;;;14.23;70.98
57763;BME280;43592;42.524;12.052;2022-11-13T08:42:13;97278.47;;;14.38;68.46
57763;BME280;43592;42.524;12.052;2022-11-13T08:44:38;97270.91;;;14.44;68.03
57763;BME280;43592;42.524;12.052;2022-11-13T08:47:04;97287.16;;;14.47;64.81
57763;BME280;43592;42.524;12.052;2022-11-13T08:49:30;97282.97;;;14.50;67.25
57763;BME280;43592;42.524;12.052;2022-11-13T08:51:55;97279.00;;;14.59;68.26
57763;BME280;43592;42.524;12.052;2022-11-13T08:54:21;97294.25;;;14.71;68.50
57763;BME280;43592;42.524;12.052;2022-11-13T08:56:46;97294.06;;;14.96;68.96
57763;BME280;43592;42.524;12.052;2022-11-13T08:59:12;97282.88;;;15.13;65.03
57763;BME280;43592;42.524;12.052;2022-11-13T09:01:38;97281.66;;;15.11;62.98
57763;BME280;43592;42.524;12.052;2022-11-13T09:04:03;97285.22;;;15.15;64.78
57763;BME280;43592;42.524;12.052;2022-11-13T09:06:29;97284.88;;;15.16;66.50
57763;BME280;43592;42.524;12.052;2022-11-13T09:08:54;97283.75;;;15.17;63.45
57763;BME280;43592;42.524;12.052;2022-11-13T09:11:20;97287.22;;;15.18;62.11
57763;BME280;43592;42.524;12.052;2022-11-13T09:13:45;97280.19;;;15.13;62.83
57763;BME280;43592;42.524;12.052;2022-11-13T09:16:10;97270.16;;;15.14;63.41
57763;BME280;43592;42.524;12.052;2022-11-13T09:18:36;97284.63;;;15.05;64.72
57763;BME280;43592;42.524;12.052;2022-11-13T09:21:02;97287.06;;;15.11;62.93
57763;BME280;43592;42.524;12.052;2022-11-13T09:23:28;97278.16;;;15.26;65.79
57763;BME280;43592;42.524;12.052;2022-11-13T09:25:53;97270.69;;;15.39;64.18
57763;BME280;43592;42.524;12.052;2022-11-13T09:28:19;97284.13;;;15.55;63.53
57763;BME280;43592;42.524;12.052;2022-11-13T09:30:44;97273.25;;;15.70;61.81
57763;BME280;43592;42.524;12.052;2022-11-13T09:33:10;97289.91;;;15.96;60.75
57763;BME280;43592;42.524;12.052;2022-11-13T09:35:39;97276.41;;;15.96;58.43
57763;BME280;43592;42.524;12.052;2022-11-13T09:38:06;97274.81;;;15.91;59.43
57763;BME280;43592;42.524;12.052;2022-11-13T09:43:17;97282.53;;;15.92;60.08
57763;BME280;43592;42.524;12.052;2022-11-13T09:45:44;97278.75;;;15.74;58.14
57763;BME280;43592;42.524;12.052;2022-11-13T09:50:36;97282.97;;;15.75;63.67
57763;BME280;43592;42.524;12.052;2022-11-13T09:53:03;97272.25;;;15.79;63.41
57763;BME280;43592;42.524;12.052;2022-11-13T09:55:32;97279.34;;;15.87;60.78
57763;BME280;43592;42.524;12.052;2022-11-13T10:00:28;97276.78;;;15.94;63.21
57763;BME280;43592;42.524;12.052;2022-11-13T10:05:31;97276.25;;;16.08;61.12
57763;BME280;43592;42.524;12.052;2022-11-13T10:08:06;97269.47;;;16.17;60.88
57763;BME280;43592;42.524;12.052;2022-11-13T10:13:11;97264.25;;;16.05;58.51
57763;BME280;43592;42.524;12.052;2022-11-13T10:15:39;97273.66;;;16.15;61.43
57763;BME280;43592;42.524;12.052;2022-11-13T10:18:15;97261.59;;;16.32;60.80
57763;BME280;43592;42.524;12.052;2022-11-13T10:20:50;97268.72;;;16.44;59.40
57763;BME280;43592;42.524;12.052;2022-11-13T10:23:23;97269.25;;;16.53;61.59
57763;BME280;43592;42.524;12.052;2022-11-13T10:25:50;97275.31;;;16.69;59.36
57763;BME280;43592;42.524;12.052;2022-11-13T10:28:17;97271.41;;;16.67;57.62
57763;BME280;43592;42.524;12.052;2022-11-13T10:30:43;97271.06;;;16.68;58.85
57763;BME280;43592;42.524;12.052;2022-11-13T10:33:11;97269.53;;;16.71;55.56
57763;BME280;43592;42.524;12.052;2022-11-13T10:40:32;97256.47;;;16.99;59.47
57763;BME280;43592;42.524;12.052;2022-11-13T10:43:05;97258.13;;;17.08;60.22
57763;BME280;43592;42.524;12.052;2022-11-13T10:45:31;97250.28;;;16.99;55.48
57763;BME280;43592;42.524;12.052;2022-11-13T10:47:57;97255.22;;;16.93;53.81
57763;BME280;43592;42.524;12.052;2022-11-13T10:50:26;97249.53;;;17.02;58.39
57763;BME280;43592;42.524;12.052;2022-11-13T10:52:52;97241.75;;;17.27;59.40
57763;BME280;43592;42.524;12.052;2022-11-13T10:55:26;97237.72;;;17.47;54.62
57763;BME280;43592;42.524;12.052;2022-11-13T10:58:03;97234.09;;;17.66;58.28
57763;BME280;43592;42.524;12.052;2022-11-13T11:00:29;97228.84;;;17.81;52.72
57763;BME280;43592;42.524;12.052;2022-11-13T11:02:55;97228.53;;;17.89;55.46
57763;BME280;43592;42.524;12.052;2022-11-13T11:05:22;97218.66;;;17.74;54.21
57763;BME280;43592;42.524;12.052;2022-11-13T11:07:47;97218.16;;;17.61;58.48
57763;BME280;43592;42.524;12.052;2022-11-13T11:10:35;97222.69;;;17.50;55.56
57763;BME280;43592;42.524;12.052;2022-11-13T11:13:04;97220.00;;;17.20;53.79
57763;BME280;43592;42.524;12.052;2022-11-13T11:15:41;97226.56;;;16.89;56.23
57763;BME280;43592;42.524;12.052;2022-11-13T11:18:28;97231.09;;;16.54;58.25
57763;BME280;43592;42.524;12.052;2022-11-13T11:20:58;97225.78;;;16.35;59.66
57763;BME280;43592;42.524;12.052;2022-11-13T11:25:51;97227.00;;;15.91;58.78
57763;BME280;43592;42.524;12.052;2022-11-13T11:30:55;97223.97;;;15.74;58.52
57763;BME280;43592;42.524;12.052;2022-11-13T11:33:29;97224.16;;;15.65;59.49
57763;BME280;43592;42.524;12.052;2022-11-13T11:36:01;97222.41;;;15.53;59.77
57763;BME280;43592;42.524;12.052;2022-11-13T11:38:34;97227.91;;;15.37;57.75
57763;BME280;43592;42.524;12.052;2022-11-13T11:41:07;97221.66;;;15.14;56.89
57763;BME280;43592;42.524;12.052;2022-11-13T11:43:42;97221.78;;;15.01;61.04
57763;BME280;43592;42.524;12.052;2022-11-13T11:46:16;97213.84;;;14.89;60.76
57763;BME280;43592;42.524;12.052;2022-11-13T11:48:44;97217.53;;;14.81;59.47
57763;BME280;43592;42.524;12.052;2022-11-13T11:59:02;97203.31;;;14.49;60.96
57763;BME280;43592;42.524;12.052;2022-11-13T12:01:44;97198.34;;;14.51;60.69
57763;BME280;43592;42.524;12.052;2022-11-13T12:04:25;97199.50;;;14.50;59.83
57763;BME280;43592;42.524;12.052;2022-11-13T12:09:30;97200.53;;;14.45;61.87
57763;BME280;43592;42.524;12.052;2022-11-13T12:12:02;97203.22;;;14.45;62.83
57763;BME280;43592;42.524;12.052;2022-11-13T12:17:12;97196.63;;;14.43;61.57
57763;BME280;43592;42.524;12.052;2022-11-13T12:20:07;97191.94;;;14.40;61.36
57763;BME280;43592;42.524;12.052;2022-11-13T12:24:57;97201.56;;;14.41;60.05
57763;BME280;43592;42.524;12.052;2022-11-13T12:27:42;97200.38;;;14.38;60.83
57763;BME280;43592;42.524;12.052;2022-11-13T12:32:38;97199.25;;;14.39;60.36
57763;BME280;43592;42.524;12.052;2022-11-13T12:35:09;97198.03;;;14.36;61.61
57763;BME280;43592;42.524;12.052;2022-11-13T12:40:06;97191.44;;;14.18;62.33
57763;BME280;43592;42.524;12.052;2022-11-13T12:42:53;97182.78;;;14.09;61.50
57763;BME280;43592;42.524;12.052;2022-11-13T12:47:46;97176.03;;;13.99;61.57
57763;BME280;43592;42.524;12.052;2022-11-13T12:50:27;97183.91;;;13.92;61.12
57763;BME280;43592;42.524;12.052;2022-11-13T12:53:03;97177.75;;;13.91;62.42
57763;BME280;43592;42.524;12.052;2022-11-13T12:55:31;97181.13;;;13.88;62.47
57763;BME280;43592;42.524;12.052;2022-11-13T12:58:18;97170.63;;;13.83;63.64
57763;BME280;43592;42.524;12.052;2022-11-13T13:11:12;97168.44;;;13.57;63.88
57763;BME280;43592;42.524;12.052;2022-11-13T13:16:26;97167.75;;;13.60;62.56
57763;BME280;43592;42.524;12.052;2022-11-13T13:19:03;97173.91;;;13.61;63.11
57763;BME280;43592;42.524;12.052;2022-11-13T13:21:38;97168.13;;;13.59;62.98
57763;BME280;43592;42.524;12.052;2022-11-13T13:24:26;97173.38;;;13.55;62.60
57763;BME280;43592;42.524;12.052;2022-11-13T13:26:52;97176.31;;;13.50;63.15
57763;BME280;43592;42.524;12.052;2022-11-13T13:29:20;97177.00;;;13.47;62.92
57763;BME280;43592;42.524;12.052;2022-11-13T13:37:03;97180.50;;;13.47;63.05
57763;BME280;43592;42.524;12.052;2022-11-13T13:39:49;97175.53;;;13.50;63.07
57763;BME280;43592;42.524;12.052;2022-11-13T13:42:34;97178.69;;;13.52;62.49
57763;BME280;43592;42.524;12.052;2022-11-13T13:45:10;97179.91;;;13.54;63.89
57763;BME280;43592;42.524;12.052;2022-11-13T13:47:40;97178.75;;;13.55;64.49
57763;BME280;43592;42.524;12.052;2022-11-13T13:50:09;97181.81;;;13.54;65.13
57763;BME280;43592;42.524;12.052;2022-11-13T13:52:37;97174.06;;;13.52;64.72
57763;BME280;43592;42.524;12.052;2022-11-13T13:55:03;97182.84;;;13.49;66.02
57763;BME280;43592;42.524;12.052;2022-11-13T13:57:30;97186.44;;;13.41;65.54
57763;BME280;43592;42.524;12.052;2022-11-13T13:59:55;97185.22;;;13.38;64.87